createdAt,value
2022-11-17T00:01:40.476Z,2
2022-11-17T00:03:43.538Z,2.6
2022-11-17T00:05:43.251Z,3
2022-11-17T00:07:42.953Z,2.6
2022-11-17T00:08:44.489Z,2.5
2022-11-17T00:12:43.886Z,2.5
2022-11-17T00:14:43.611Z,2.6
2022-11-17T00:16:46.662Z,1.5
2022-11-17T00:20:46.058Z,2.9
2022-11-17T00:22:45.771Z,2.7
2022-11-17T00:24:45.448Z,2.7
2022-11-17T00:26:45.136Z,2.7
2022-11-17T00:28:44.844Z,2.6
2022-11-17T00:30:47.924Z,3
2022-11-17T00:32:47.605Z,3
2022-11-17T00:38:46.695Z,2.8
2022-11-17T00:40:46.392Z,3.5
2022-11-17T00:42:46.110Z,3.7
2022-11-17T00:44:49.240Z,1.7
2022-11-17T00:46:48.934Z,2.8
2022-11-17T00:54:47.729Z,3.1
2022-11-17T00:58:50.571Z,2.7
2022-11-17T01:00:50.244Z,2.4
2022-11-17T01:02:49.963Z,3.5
2022-11-17T01:03:51.494Z,3.1
2022-11-17T01:05:51.211Z,2.4
2022-11-17T01:07:50.900Z,3.1
2022-11-17T01:09:50.634Z,2.4
2022-11-17T01:11:53.739Z,2.7
2022-11-17T01:13:53.432Z,2.9
2022-11-17T01:15:53.116Z,2.7
2022-11-17T01:17:52.825Z,2.7
2022-11-17T01:19:52.531Z,3.8
2022-11-17T01:21:52.272Z,3.6
2022-11-17T01:23:51.924Z,2.9
2022-11-17T01:25:55.058Z,2.9
2022-11-17T01:27:54.750Z,4.2
2022-11-17T01:29:54.438Z,3.3
2022-11-17T01:31:54.176Z,2.3
2022-11-17T01:33:53.868Z,3.3
2022-11-17T01:35:53.562Z,2.7
2022-11-17T01:39:56.407Z,3.1
2022-11-17T01:41:56.108Z,2.6
2022-11-17T01:43:55.813Z,2.7
2022-11-17T01:45:55.531Z,2.5
2022-11-17T01:47:55.222Z,2.8
2022-11-17T01:49:54.923Z,1.4
2022-11-17T01:51:54.642Z,2.1
2022-11-17T01:57:57.151Z,2
2022-11-17T01:58:58.724Z,3.5
2022-11-17T02:00:58.425Z,2.8
2022-11-17T02:07:01.006Z,1.3
2022-11-17T02:09:00.673Z,2
2022-11-17T02:11:00.404Z,2
2022-11-17T02:13:00.129Z,3
2022-11-17T02:14:59.795Z,2.3
2022-11-17T02:17:07.028Z,2.4
2022-11-17T02:18:59.229Z,2.3
2022-11-17T02:21:02.367Z,2.1
2022-11-17T02:23:02.042Z,2.7
2022-11-17T02:25:01.760Z,2
2022-11-17T02:27:01.452Z,1.9
2022-11-17T02:29:19.205Z,1.9
2022-11-17T02:31:00.859Z,2.6
2022-11-17T02:33:33.427Z,2.1
2022-11-17T02:35:03.686Z,2.6
2022-11-17T02:37:03.389Z,2.8
2022-11-17T02:41:02.805Z,1.9
2022-11-17T02:43:02.521Z,2.4
2022-11-17T02:45:02.188Z,2.5
2022-11-17T02:47:01.905Z,3
2022-11-17T02:49:04.992Z,2.6
2022-11-17T02:51:04.738Z,3.1
2022-11-17T02:53:04.410Z,3.1
2022-11-17T02:55:26.215Z,2.8
2022-11-17T02:57:25.914Z,2.8
2022-11-17T02:59:25.610Z,3.5
2022-11-17T03:01:28.774Z,3.1
2022-11-17T03:03:28.417Z,2.9
2022-11-17T03:05:28.111Z,2.7
2022-11-17T03:07:27.870Z,2.3
2022-11-17T03:09:27.546Z,2.8
2022-11-17T03:11:27.243Z,3.4
2022-11-17T03:13:26.954Z,1.6
2022-11-17T03:15:30.045Z,2.5
2022-11-17T03:17:29.750Z,2.7
2022-11-17T03:19:29.429Z,2.7
2022-11-17T03:21:29.161Z,2.9
2022-11-17T03:23:28.867Z,3
2022-11-17T03:25:28.557Z,2.3
2022-11-17T03:27:28.251Z,2.8
2022-11-17T03:29:31.343Z,2.7
2022-11-17T03:31:31.031Z,2.8
2022-11-17T03:33:30.736Z,2.7
2022-11-17T03:35:30.455Z,2.3
2022-11-17T03:37:30.172Z,2.8
2022-11-17T03:39:29.835Z,2.2
2022-11-17T03:41:29.566Z,2.8
2022-11-17T03:43:33.000Z,2.6
2022-11-17T03:45:32.325Z,3.5
2022-11-17T03:47:32.007Z,2.3
2022-11-17T03:50:33.245Z,2.7
2022-11-17T03:52:32.919Z,2.6
2022-11-17T03:54:32.624Z,2
2022-11-17T03:56:35.714Z,2.5
2022-11-17T03:58:35.408Z,2.7
2022-11-17T04:00:35.129Z,2.2
2022-11-17T04:02:34.831Z,2.9
2022-11-17T04:04:34.523Z,2.6
2022-11-17T04:06:34.252Z,2.1
2022-11-17T04:08:33.924Z,2
2022-11-17T04:10:37.040Z,3.6
2022-11-17T04:12:36.728Z,2.6
2022-11-17T04:14:36.437Z,3.2
2022-11-17T04:16:36.136Z,3.2
2022-11-17T04:18:35.837Z,3.4
2022-11-17T04:20:35.516Z,3.5
2022-11-17T04:22:35.239Z,3
2022-11-17T04:24:39.873Z,2.9
2022-11-17T04:26:39.569Z,4.1
2022-11-17T04:28:39.289Z,3
2022-11-17T04:30:38.990Z,2
2022-11-17T04:34:38.379Z,2.9
2022-11-17T04:38:42.450Z,3.2
2022-11-17T04:40:40.856Z,3.2
2022-11-17T04:42:40.572Z,3.3
2022-11-17T04:43:42.111Z,1.6
2022-11-17T04:45:41.795Z,3.2
2022-11-17T04:47:41.481Z,2.6
2022-11-17T04:49:41.207Z,3.4
2022-11-17T04:51:44.341Z,2.7
2022-11-17T04:55:43.712Z,3
2022-11-17T04:57:43.418Z,3.3
2022-11-17T04:59:43.052Z,2.4
2022-11-17T05:01:42.870Z,2.5
2022-11-17T05:03:42.443Z,2.8
2022-11-17T05:05:45.571Z,2.6
2022-11-17T05:07:45.292Z,2.5
2022-11-17T05:09:44.920Z,2.4
2022-11-17T05:11:44.639Z,3.3
2022-11-17T05:13:44.315Z,2.2
2022-11-17T05:15:44.050Z,2.8
2022-11-17T05:17:43.736Z,3.1
2022-11-17T05:21:46.540Z,2.6
2022-11-17T05:23:46.232Z,2.6
2022-11-17T05:25:45.941Z,2.3
2022-11-17T05:27:45.623Z,3.2
2022-11-17T05:29:45.332Z,3
2022-11-17T05:33:48.116Z,2.5
2022-11-17T05:35:47.835Z,3.1
2022-11-17T05:37:47.535Z,3.7
2022-11-17T05:38:49.066Z,3.8
2022-11-17T05:40:48.776Z,2.6
2022-11-17T05:42:51.809Z,3.1
2022-11-17T05:44:48.165Z,3
2022-11-17T05:46:51.288Z,1.5
2022-11-17T05:48:50.990Z,3.5
2022-11-17T05:50:50.704Z,3
2022-11-17T05:52:50.390Z,3.1
2022-11-17T05:54:50.094Z,3.1
2022-11-17T05:58:49.520Z,3.4
2022-11-17T06:00:52.609Z,3.2
2022-11-17T06:02:52.300Z,2.8
2022-11-17T06:04:52.002Z,2.8
2022-11-17T06:06:51.737Z,2.4
2022-11-17T06:08:51.400Z,2.4
2022-11-17T06:10:51.115Z,3
2022-11-17T06:12:50.808Z,2.9
2022-11-17T06:14:53.928Z,2.9
2022-11-17T06:16:53.625Z,3.4
2022-11-17T06:18:53.325Z,3.5
2022-11-17T06:24:52.429Z,2.8
2022-11-17T06:28:55.171Z,3.1
2022-11-17T06:30:54.866Z,3.2
2022-11-17T06:32:54.638Z,3
2022-11-17T06:35:15.999Z,2.5
2022-11-17T06:37:15.659Z,2.9
2022-11-17T06:39:15.378Z,2.9
2022-11-17T06:41:18.469Z,3.2
2022-11-17T06:43:18.167Z,2.6
2022-11-17T06:45:17.854Z,2.9
2022-11-17T06:47:17.557Z,2.6
2022-11-17T06:49:17.263Z,3
2022-11-17T06:51:16.969Z,2.8
2022-11-17T06:53:16.654Z,3.2
2022-11-17T06:55:19.762Z,2.5
2022-11-17T06:57:19.452Z,3.1
2022-11-17T06:59:19.159Z,2
2022-11-17T07:01:18.964Z,3.1
2022-11-17T07:03:18.547Z,2.7
2022-11-17T07:05:18.238Z,3.7
2022-11-17T07:07:17.960Z,2.9
2022-11-17T07:09:21.144Z,2.9
2022-11-17T07:11:20.856Z,2.1
2022-11-17T07:13:20.575Z,2.7
2022-11-17T07:15:20.282Z,2.1
2022-11-17T07:17:19.980Z,2.8
2022-11-17T07:19:19.669Z,3.6
2022-11-17T07:21:19.358Z,3
2022-11-17T07:23:22.463Z,3.4
2022-11-17T07:25:22.542Z,3.6
2022-11-17T07:27:21.921Z,3.5
2022-11-17T07:28:23.416Z,2.9
2022-11-17T07:30:23.140Z,2.9
2022-11-17T07:32:22.835Z,2.7
2022-11-17T07:34:22.564Z,2.7
2022-11-17T07:36:25.770Z,2.1
2022-11-17T07:38:25.325Z,2.9
2022-11-17T07:40:25.045Z,3
2022-11-17T07:42:24.742Z,2.9
2022-11-17T07:44:24.457Z,2.8
2022-11-17T07:46:24.134Z,2.5
2022-11-17T07:48:23.847Z,3
2022-11-17T07:50:26.956Z,2.6
2022-11-17T07:52:26.664Z,2.1
2022-11-17T07:54:26.362Z,1.9
2022-11-17T08:02:25.167Z,1.5
2022-11-17T08:08:27.691Z,1.6
2022-11-17T08:10:27.426Z,1.3
2022-11-17T08:16:26.454Z,2.6
2022-11-17T08:20:13.417Z,2.2
2022-11-17T08:22:28.931Z,2.3
2022-11-17T08:23:30.472Z,2
2022-11-17T08:25:38.426Z,1.4
2022-11-17T08:27:29.862Z,2.5
2022-11-17T08:29:29.556Z,1.8
2022-11-17T08:33:32.355Z,2.3
2022-11-17T08:35:37.163Z,2.1
2022-11-17T08:43:30.830Z,2.2
2022-11-17T08:45:33.920Z,1.7
2022-11-17T08:47:33.606Z,1.8
2022-11-17T08:51:32.972Z,2.1
2022-11-17T08:53:32.689Z,1.6
2022-11-17T08:55:35.683Z,1.6
2022-11-17T08:57:32.166Z,1.9
2022-11-17T08:59:35.167Z,2
2022-11-17T09:01:34.950Z,1.4
2022-11-17T09:03:34.528Z,1.6
2022-11-17T09:05:34.298Z,1.6
2022-11-17T09:07:35.034Z,1.6
2022-11-17T09:09:33.660Z,1.6
2022-11-17T09:11:33.337Z,1.4
2022-11-17T09:13:36.449Z,2.1
2022-11-17T09:15:36.114Z,1.5
2022-11-17T09:17:35.824Z,1.4
2022-11-17T09:18:37.996Z,1.6
2022-11-17T09:20:40.258Z,1.5
2022-11-17T09:22:36.786Z,1.7
2022-11-17T09:24:36.537Z,1.6
2022-11-17T09:28:39.591Z,1.6
2022-11-17T09:30:38.897Z,1.5
2022-11-17T09:32:38.635Z,1.5
2022-11-17T09:34:38.395Z,1.4
2022-11-17T09:36:38.024Z,1
2022-11-17T09:38:38.254Z,1
2022-11-17T09:40:41.168Z,1.3
2022-11-17T09:42:40.890Z,1.9
2022-11-17T09:44:40.547Z,1.5
2022-11-17T09:46:40.246Z,1
2022-11-17T09:48:41.356Z,1.4
2022-11-17T09:50:39.627Z,1.2
2022-11-17T09:52:39.346Z,1.4
2022-11-17T09:54:42.424Z,1.3
2022-11-17T09:56:42.239Z,1
2022-11-17T10:02:41.230Z,1.1
2022-11-17T10:08:45.251Z,1.2
2022-11-17T10:10:44.928Z,1.3
2022-11-17T10:12:44.627Z,1.7
2022-11-17T10:31:00.717Z,0.8
2022-11-17T10:33:00.332Z,1.2
2022-11-17T10:35:03.435Z,0.7
2022-11-17T10:37:03.125Z,2
2022-11-17T10:39:02.812Z,1.3
2022-11-17T10:41:02.521Z,0.9
2022-11-17T10:43:02.178Z,0.9
2022-11-17T10:45:01.872Z,0.9
2022-11-17T10:47:02.915Z,1.2
2022-11-17T10:49:04.620Z,1.4
2022-11-17T10:51:04.329Z,0.9
2022-11-17T10:53:06.596Z,1.3
2022-11-17T10:55:03.666Z,1.6
2022-11-17T10:57:03.407Z,1.1
2022-11-17T10:59:03.082Z,1
2022-11-17T11:01:02.858Z,1.6
2022-11-17T11:03:05.853Z,0.9
2022-11-17T11:05:05.566Z,1.4
2022-11-17T11:07:05.308Z,1.5
2022-11-17T11:08:06.781Z,1.8
2022-11-17T11:10:06.468Z,1.5
2022-11-17T11:12:06.171Z,2.2
2022-11-17T11:14:05.901Z,1.4
2022-11-17T11:16:08.991Z,1.3
2022-11-17T11:18:08.690Z,1.2
2022-11-17T11:20:08.386Z,1.2
2022-11-17T11:24:07.768Z,0.8
2022-11-17T11:26:07.442Z,1
2022-11-17T11:28:07.170Z,1.5
2022-11-17T11:30:10.271Z,1.2
2022-11-17T11:36:09.358Z,1.4
2022-11-17T11:38:09.058Z,1.8
2022-11-17T11:40:08.755Z,1.1
2022-11-17T11:42:08.525Z,1.3
2022-11-17T11:46:11.200Z,1.1
2022-11-17T11:48:10.893Z,1.5
2022-11-17T11:50:10.592Z,0.8
2022-11-17T11:52:10.267Z,1.4
2022-11-17T11:54:10.346Z,1
2022-11-17T11:56:09.652Z,1.1
2022-11-17T11:58:12.746Z,1.1
2022-11-17T12:00:12.499Z,1.3
2022-11-17T12:02:12.197Z,1.2
2022-11-17T12:03:13.714Z,1.3
2022-11-17T12:05:13.367Z,1.3
2022-11-17T12:07:13.107Z,1.1
2022-11-17T12:09:12.753Z,1.9
2022-11-17T12:11:15.835Z,1.1
2022-11-17T12:13:15.533Z,1.5
2022-11-17T12:15:15.202Z,1.3
2022-11-17T12:17:14.911Z,1.5
2022-11-17T12:19:14.579Z,1.1
2022-11-17T12:21:14.276Z,1.3
2022-11-17T12:23:13.926Z,1.5
2022-11-17T12:25:16.993Z,1
2022-11-17T12:29:16.406Z,0.9
2022-11-17T12:31:16.102Z,1.7
2022-11-17T12:35:15.443Z,0.9
2022-11-17T12:37:15.121Z,1.4
2022-11-17T12:39:18.192Z,1.6
2022-11-17T12:41:17.912Z,1.3
2022-11-17T12:43:17.582Z,1.4
2022-11-17T12:45:17.279Z,0.9
2022-11-17T12:47:16.978Z,1.7
2022-11-17T12:49:16.739Z,1.5
2022-11-17T12:53:19.411Z,1.3
2022-11-17T12:58:20.343Z,1.3
2022-11-17T13:00:20.030Z,0.9
2022-11-17T13:02:19.698Z,1.8
2022-11-17T13:06:35.923Z,2.2
2022-11-17T13:08:22.182Z,0.9
2022-11-17T13:10:21.854Z,0.9
2022-11-17T13:12:21.534Z,0.9
2022-11-17T13:14:21.250Z,1.5
2022-11-17T13:18:20.601Z,1.8
2022-11-17T13:20:23.745Z,1.1
2022-11-17T13:22:23.424Z,1.7
2022-11-17T13:24:23.106Z,1.1
2022-11-17T13:26:22.791Z,1.2
2022-11-17T13:28:22.480Z,1.5
2022-11-17T13:30:22.158Z,1.5
2022-11-17T13:32:21.879Z,1.1
2022-11-17T13:34:25.004Z,0.8
2022-11-17T13:36:24.655Z,1.3
2022-11-17T13:38:24.445Z,1.5
2022-11-17T13:40:24.029Z,2.1
2022-11-17T13:42:23.706Z,1.3
2022-11-17T13:44:23.429Z,0.9
2022-11-17T13:46:23.090Z,1.1
2022-11-17T13:50:25.902Z,1.4
2022-11-17T13:52:26.938Z,1.2
2022-11-17T13:54:47.151Z,1.3
2022-11-17T13:56:46.865Z,1.2
2022-11-17T13:58:46.551Z,1.3
2022-11-17T14:00:49.667Z,0.8
2022-11-17T14:02:49.346Z,1.1
2022-11-17T14:04:49.025Z,1.3
2022-11-17T14:06:48.700Z,1.2
2022-11-17T14:08:48.385Z,1.1
2022-11-17T14:10:48.145Z,1.9
2022-11-17T14:12:47.806Z,1.6
2022-11-17T14:14:50.901Z,2
2022-11-17T14:16:50.609Z,1.3
2022-11-17T14:18:50.308Z,1
2022-11-17T14:20:49.988Z,1.3
2022-11-17T14:22:49.681Z,1
2022-11-17T14:24:49.401Z,0.9
2022-11-17T14:28:52.190Z,1.3
2022-11-17T14:30:51.878Z,1.4
2022-11-17T14:34:51.284Z,3.4
2022-11-17T14:42:53.497Z,1.8
2022-11-17T14:44:53.190Z,1.2
2022-11-17T14:46:52.889Z,1.7
2022-11-17T14:47:54.445Z,1.7
2022-11-17T14:49:54.145Z,1.7
2022-11-17T14:51:53.853Z,1.5
2022-11-17T14:53:53.550Z,1.8
2022-11-17T14:55:56.655Z,1.8
2022-11-17T14:57:56.335Z,1.3
2022-11-17T14:59:56.037Z,2.1
2022-11-17T15:01:55.749Z,2.4
2022-11-17T15:03:55.505Z,1.7
2022-11-17T15:05:55.178Z,1.5
2022-11-17T15:07:54.864Z,1.5
2022-11-17T15:09:57.975Z,2.6
2022-11-17T15:11:57.677Z,1.4
2022-11-17T15:13:57.398Z,1.8
2022-11-17T15:15:57.085Z,1.5
2022-11-17T15:17:56.777Z,1.8
2022-11-17T15:19:56.469Z,1.7
2022-11-17T15:21:56.174Z,2.3
2022-11-17T15:23:59.277Z,1.8
2022-11-17T15:25:58.986Z,1.8
2022-11-17T15:27:58.667Z,2.6
2022-11-17T15:30:00.300Z,1.8
2022-11-17T15:33:57.766Z,1.5
2022-11-17T15:35:57.464Z,2
2022-11-17T15:38:00.568Z,2.5
2022-11-17T15:40:00.304Z,2.6
2022-11-17T15:42:00.013Z,1.9
2022-11-17T15:43:01.553Z,2.3
2022-11-17T15:45:01.229Z,2.2
2022-11-17T15:47:00.916Z,1.7
2022-11-17T15:49:00.600Z,1.9
2022-11-17T15:51:03.717Z,1.8
2022-11-17T15:53:05.249Z,2
2022-11-17T15:55:04.760Z,2.1
2022-11-17T15:57:04.476Z,2.2
2022-11-17T15:59:04.167Z,1.9
2022-11-17T16:01:03.930Z,2
2022-11-17T16:03:03.558Z,1.6
2022-11-17T16:05:06.698Z,1.8
2022-11-17T16:07:06.565Z,2
2022-11-17T16:09:06.113Z,2.1
2022-11-17T16:11:05.760Z,2.4
2022-11-17T16:13:05.479Z,1.6
2022-11-17T16:15:05.156Z,1.6
2022-11-17T16:17:04.852Z,1.7
2022-11-17T16:19:07.939Z,2.4
2022-11-17T16:27:06.646Z,1.3
2022-11-17T16:31:06.046Z,1.5
2022-11-17T16:33:09.108Z,2
2022-11-17T16:37:08.454Z,1.9
2022-11-17T16:38:09.951Z,2.1
2022-11-17T16:40:09.644Z,1.2
2022-11-17T16:42:09.326Z,1.6
2022-11-17T16:44:09.111Z,1.6
2022-11-17T16:46:12.103Z,1.5
2022-11-17T16:48:11.754Z,1.8
2022-11-17T16:50:11.437Z,1.6
2022-11-17T16:52:11.096Z,1.8
2022-11-17T16:56:10.478Z,1.9
2022-11-17T16:58:10.155Z,1.8
2022-11-17T17:00:13.243Z,1.6
2022-11-17T17:02:12.945Z,1.9
2022-11-17T17:06:12.308Z,1.8
2022-11-17T17:08:12.007Z,1.7
2022-11-17T17:10:11.699Z,1.8
2022-11-17T17:12:11.371Z,1.9
2022-11-17T17:14:14.453Z,1.9
2022-11-17T17:16:14.127Z,1.9
2022-11-17T17:18:13.862Z,1.7
2022-11-17T17:20:13.498Z,2.2
2022-11-17T17:24:12.844Z,1.9
2022-11-17T17:30:15.337Z,2.3
2022-11-17T17:32:14.991Z,1.7
2022-11-17T17:40:32.628Z,2
2022-11-17T17:42:32.293Z,1.9
2022-11-17T17:44:31.980Z,2.2
2022-11-17T17:46:31.678Z,1.5
2022-11-17T17:48:31.364Z,1.9
2022-11-17T17:52:30.743Z,1.6
2022-11-17T17:54:33.815Z,2
2022-11-17T17:58:33.202Z,1.9
2022-11-17T18:00:32.915Z,1.7
2022-11-17T18:02:32.606Z,2.1
2022-11-17T18:04:32.289Z,2.3
2022-11-17T18:06:31.982Z,1.8
2022-11-17T18:08:35.091Z,1.9
2022-11-17T18:12:34.497Z,2.4
2022-11-17T18:14:34.191Z,1.9
2022-11-17T18:16:33.891Z,2
2022-11-17T18:18:33.562Z,1.7
2022-11-17T18:20:33.297Z,2
2022-11-17T18:27:37.318Z,2.2
2022-11-17T18:29:37.021Z,1.9
2022-11-17T18:33:36.396Z,2.2
2022-11-17T18:37:39.200Z,2.3
2022-11-17T18:39:38.887Z,1.2
2022-11-17T18:41:38.666Z,1.7
2022-11-17T18:43:38.293Z,2.2
2022-11-17T18:45:37.989Z,2
2022-11-17T18:47:37.727Z,2.3
2022-11-17T18:49:40.792Z,1.8
2022-11-17T18:51:40.487Z,2.2
2022-11-17T18:53:40.239Z,2.3
2022-11-17T18:55:39.892Z,2.3
2022-11-17T18:57:44.576Z,2.2
2022-11-17T18:59:39.317Z,3
2022-11-17T19:01:39.089Z,2.2
2022-11-17T19:03:42.140Z,1.9
2022-11-17T19:05:41.851Z,2
2022-11-17T19:07:41.658Z,2.3
2022-11-17T19:09:41.283Z,2.1
2022-11-17T19:11:41.007Z,1.8
2022-11-17T19:13:40.782Z,2.3
2022-11-17T19:15:40.521Z,2.3
2022-11-17T19:17:43.631Z,2.5
2022-11-17T19:19:43.370Z,1.7
2022-11-17T19:21:43.163Z,2.3
2022-11-17T19:22:44.731Z,1.8
2022-11-17T19:24:44.430Z,2.5
2022-11-17T19:26:44.181Z,1.8
2022-11-17T19:30:46.990Z,2.4
2022-11-17T19:32:46.680Z,2.6
2022-11-17T19:34:46.392Z,1.6
2022-11-17T19:36:46.163Z,2.5
2022-11-17T19:38:45.817Z,2.8
2022-11-17T19:50:51.636Z,2.2
2022-11-17T19:52:47.468Z,2.6
2022-11-17T19:54:47.189Z,2.1
2022-11-17T19:56:46.894Z,2.4
2022-11-17T19:58:50.165Z,2.1
2022-11-17T20:00:49.948Z,2.2
2022-11-17T20:02:49.629Z,2.1
2022-11-17T20:08:48.989Z,1.7
2022-11-17T20:10:48.780Z,2.2
2022-11-17T20:12:51.977Z,2.3
2022-11-17T20:14:51.721Z,2.3
2022-11-17T20:16:51.496Z,1.8
2022-11-17T20:17:53.112Z,2.4
2022-11-17T20:19:52.841Z,2.8
2022-11-17T20:21:52.571Z,2.2
2022-11-17T20:23:52.362Z,2.5
2022-11-17T20:25:55.496Z,2.7
2022-11-17T20:29:55.025Z,2.1
2022-11-17T20:33:54.464Z,2.1
2022-11-17T20:35:54.185Z,2.2
2022-11-17T20:37:53.895Z,2.4
2022-11-17T20:39:57.220Z,2.5
2022-11-17T20:41:57.046Z,2.5
2022-11-17T20:45:56.470Z,1.9
2022-11-17T20:47:56.208Z,2.5
2022-11-17T20:49:56.018Z,2.5
2022-11-17T20:51:55.833Z,1.8
2022-11-17T20:55:58.885Z,2.6
2022-11-17T20:57:58.605Z,2.1
2022-11-17T20:59:58.424Z,2.3
2022-11-17T21:01:58.133Z,2.5
2022-11-17T21:03:57.893Z,2.3
2022-11-17T21:05:59.103Z,3.2
2022-11-17T21:08:00.907Z,2.3
2022-11-17T21:10:00.673Z,2.5
2022-11-17T21:12:00.431Z,3.4
2022-11-17T21:14:22.478Z,2.7
2022-11-17T21:16:22.261Z,2.6
2022-11-17T21:18:22.003Z,3
2022-11-17T21:20:25.225Z,3.3
2022-11-17T21:22:24.960Z,2.6
2022-11-17T21:26:24.712Z,2.6
2022-11-17T21:28:24.303Z,2.7
2022-11-17T21:30:24.061Z,3.2
2022-11-17T21:32:23.770Z,2.4
2022-11-17T21:38:27.940Z,3.6
2022-11-17T21:44:27.086Z,3.8
2022-11-17T21:46:26.889Z,4.3
2022-11-17T21:48:30.086Z,3.3
2022-11-17T21:50:29.814Z,4.1
2022-11-17T21:52:29.556Z,4.1
2022-11-17T21:54:29.271Z,3.6
2022-11-17T21:56:29.037Z,4.1
2022-11-17T21:58:28.866Z,3.4
2022-11-17T22:00:28.702Z,3.5
2022-11-17T22:02:31.813Z,3.6
2022-11-17T22:04:31.518Z,3
2022-11-17T22:06:31.270Z,3
2022-11-17T22:07:32.979Z,2.6
2022-11-17T22:09:32.737Z,3.6
2022-11-17T22:11:32.580Z,3.5
2022-11-17T22:13:32.312Z,3
2022-11-17T22:15:35.447Z,3.8
2022-11-17T22:17:35.168Z,3.9
2022-11-17T22:19:34.888Z,3.4
2022-11-17T22:21:34.649Z,3.1
2022-11-17T22:23:34.466Z,3
2022-11-17T22:25:44.744Z,3.4
2022-11-17T22:27:34.152Z,3.8
2022-11-17T22:29:37.469Z,3.9
2022-11-17T22:31:37.283Z,3.7
2022-11-17T22:33:37.016Z,3.5
2022-11-17T22:35:36.760Z,3.5
2022-11-17T22:37:36.512Z,3.6
2022-11-17T22:39:36.362Z,2.3
2022-11-17T22:41:36.176Z,3.5
2022-11-17T22:43:39.434Z,3.4
2022-11-17T22:45:39.160Z,3.7
2022-11-17T22:47:38.984Z,4
2022-11-17T22:51:38.637Z,4.1
2022-11-17T22:53:38.491Z,3.4
2022-11-17T22:55:38.339Z,3.7
2022-11-17T22:57:41.664Z,3.2
2022-11-17T22:59:41.495Z,3.5
2022-11-17T23:01:41.232Z,3.2
2022-11-17T23:02:42.900Z,3.5
2022-11-17T23:04:42.742Z,3.7
2022-11-17T23:06:42.571Z,3.3
2022-11-17T23:08:42.331Z,3.4
2022-11-17T23:10:45.707Z,3.8
2022-11-17T23:12:45.520Z,3.6
2022-11-17T23:14:45.360Z,3.5
2022-11-17T23:16:45.201Z,3.2
2022-11-17T23:18:45.045Z,3.9
2022-11-17T23:20:44.881Z,4.1
2022-11-17T23:22:44.721Z,2.8
2022-11-17T23:28:47.517Z,3.3
2022-11-17T23:30:47.361Z,2.9
2022-11-17T23:32:47.209Z,3.6
2022-11-17T23:38:50.151Z,4.1
2022-11-17T23:44:49.547Z,3.6
2022-11-17T23:54:52.050Z,3.9
2022-11-17T23:56:51.894Z,4
2022-11-17T23:57:53.557Z,3.6
2022-11-17T23:59:53.394Z,3.9
